Independence — WDD6659 — position and weather

sailwx.info

Track history (hours):
 
Tides and Currents Weather Stations Pressure Air Temp Water Temp Dewpoint Dewpoint Depression Visibility Wind Speed Wind Dir Waves Ship Positions

Independence

Owner: AMNAV Maritime Corporation, Oakland, CA. More information available from US FCC via Universal Licensing System and Coast Guard Vessel Documentation Center.

Last reported at 2018-Feb-23 16:29 UTC. Time now 2018-Feb-23 16:34 UTC.
Position N 33°44' W 118°17'.

Length 24 m; draft 4.9 m.

Type: Tug. MMSI: 367175860.

Date/timePositionNaut miles runAvg speedWind from/ knotsBaromVisibWave heightAir tempDewpointWater temp
2018-Feb-23 16:29N 33°44' W 118°17'0 0.0
2018-Feb-23 15:59N 33°44' W 118°17'0 0.0
2018-Feb-23 15:30N 33°44' W 118°17'0 0.0
2018-Feb-23 15:00N 33°44' W 118°17'0 0.0
2018-Feb-23 14:30N 33°44' W 118°17'0 0.0
2018-Feb-23 12:20N 33°44' W 118°17'0 0.0
2018-Feb-23 11:49N 33°44' W 118°17'0 0.0
2018-Feb-23 08:00N 33°44' W 118°17'0 0.0
2018-Feb-23 04:11N 33°44' W 118°17'0 0.0
2018-Feb-23 03:45N 33°44' W 118°17'0 0.0
2018-Feb-23 03:30N 33°44' W 118°17'1 1.6
2018-Feb-23 02:58N 33°44' W 118°16'0 1.0
2018-Feb-23 02:31N 33°43' W 118°16'1 1.1
2018-Feb-23 01:48N 33°44' W 118°17'0 0.0
2018-Feb-23 01:29N 33°44' W 118°17'0 0.0
2018-Feb-23 01:00N 33°44' W 118°17'1 1.1
2018-Feb-23 00:31N 33°44' W 118°17'1 2.4
2018-Feb-23 00:00N 33°46' W 118°17'1 1.1
2018-Feb-22 23:31N 33°45' W 118°16'2 4.2
2018-Feb-22 23:01N 33°43' W 118°16'1 1.2
2018-Feb-22 22:29N 33°43' W 118°15'1 3.1
2018-Feb-22 22:00N 33°44' W 118°17'0 0.0
2018-Feb-22 21:26N 33°44' W 118°17'0 0.0
2018-Feb-22 21:00N 33°44' W 118°17'0 0.0
2018-Feb-22 20:27N 33°44' W 118°17'0 0.0
2018-Feb-22 19:59N 33°44' W 118°17'0 0.0
2018-Feb-22 19:27N 33°44' W 118°17'0 0.0
2018-Feb-22 19:00N 33°44' W 118°17'0 0.0
2018-Feb-22 18:30N 33°44' W 118°17'0 0.0
2018-Feb-22 18:00N 33°44' W 118°17'0 0.0
2018-Feb-22 17:29N 33°44' W 118°17'0 0.0
2018-Feb-22 16:44N 33°44' W 118°17'0 0.0
2018-Feb-22 16:30N 33°44' W 118°17'0 0.0
2018-Feb-22 16:00N 33°44' W 118°17'0 0.0
2018-Feb-22 15:30N 33°44' W 118°17'3 6.3
2018-Feb-22 15:00N 33°44' W 118°13'1 1.1
2018-Feb-22 14:30N 33°44' W 118°12'0 0.8
2018-Feb-22 13:58N 33°44' W 118°12'1 1.0
2018-Feb-22 12:54N 33°43' W 118°12'2 6.2
2018-Feb-22 12:30N 33°43' W 118°15'2 1.9
2018-Feb-22 11:30N 33°44' W 118°17'0 0.0
2018-Feb-22 10:54N 33°44' W 118°17'0 0.0
2018-Feb-22 08:38N 33°44' W 118°17'0 0.0
2018-Feb-22 08:26N 33°44' W 118°17'0 0.0
2018-Feb-22 07:49N 33°44' W 118°17'0 0.0
2018-Feb-22 07:30N 33°44' W 118°17'0 0.0
2018-Feb-22 06:59N 33°44' W 118°17'0 0.0
2018-Feb-22 06:11N 33°44' W 118°17'0 0.0
2018-Feb-22 05:59N 33°44' W 118°17'0 0.0
2018-Feb-22 05:28N 33°44' W 118°17'0 0.0
2018-Feb-22 04:59N 33°44' W 118°17'0 0.0
2018-Feb-22 04:30N 33°44' W 118°17'0 0.0
2018-Feb-22 03:57N 33°44' W 118°17'0 0.0
2018-Feb-22 03:29N 33°44' W 118°17'0 0.0
2018-Feb-22 02:59N 33°44' W 118°17'0 0.0
2018-Feb-22 02:28N 33°44' W 118°17'0 0.0
2018-Feb-22 01:59N 33°44' W 118°17'0 0.0
2018-Feb-22 01:30N 33°44' W 118°17'2 4.1
2018-Feb-22 01:00N 33°43' W 118°14'3 6.5
2018-Feb-22 00:31N 33°44' W 118°11'1 1.4
2018-Feb-22 00:00N 33°44' W 118°10'1 1.6
2018-Feb-21 23:30N 33°44' W 118°11'2 4.3
2018-Feb-21 23:00N 33°45' W 118°13'0 0.0
2018-Feb-21 22:30N 33°45' W 118°13'0 0.0
2018-Feb-21 22:01N 33°45' W 118°13'2 3.1
2018-Feb-21 21:30N 33°44' W 118°12'2 3.7
2018-Feb-21 21:00N 33°45' W 118°13'0 0.9
2018-Feb-21 20:30N 33°45' W 118°13'0 0.2
2018-Feb-21 19:59N 33°45' W 118°13'1 1.4
2018-Feb-21 19:30N 33°45' W 118°13'3 6.0
2018-Feb-21 19:00N 33°44' W 118°16'0 0.6
2018-Feb-21 18:30N 33°44' W 118°17'0 0.0
2018-Feb-21 18:00N 33°44' W 118°17'0 0.0
2018-Feb-21 17:26N 33°44' W 118°17'0 0.0
2018-Feb-21 16:58N 33°44' W 118°17'0 0.0
2018-Feb-21 16:30N 33°44' W 118°17'0 0.0
2018-Feb-21 16:00N 33°44' W 118°17'0 0.0
2018-Feb-21 15:30N 33°44' W 118°17'1 2.8
2018-Feb-21 15:00N 33°45' W 118°16'2 3.6
2018-Feb-21 14:30N 33°46' W 118°14'1 1.3
2018-Feb-21 13:59N 33°46' W 118°13'2 3.6
2018-Feb-21 13:31N 33°44' W 118°13'1 1.3
2018-Feb-21 12:45N 33°43' W 118°12'2 7.1
2018-Feb-21 12:30N 33°43' W 118°14'2 0.3
2018-Feb-21 05:08N 33°44' W 118°17'0 0.0
2018-Feb-21 03:53N 33°44' W 118°17'0 0.0
2018-Feb-21 03:26N 33°44' W 118°17'0 0.0
2018-Feb-21 03:00N 33°44' W 118°17'0 0.0
2018-Feb-21 01:51N 33°44' W 118°17'0 0.0
2018-Feb-21 01:30N 33°44' W 118°17'0 0.0
2018-Feb-21 01:00N 33°44' W 118°17'0 0.0
2018-Feb-21 00:30N 33°44' W 118°17'0 0.0
2018-Feb-21 00:00N 33°44' W 118°17'2 3.2
2018-Feb-20 23:30N 33°43' W 118°15'3 5.2
2018-Feb-20 23:00N 33°45' W 118°14'0 0.5
2018-Feb-20 22:30N 33°45' W 118°14'2 3.2
2018-Feb-20 22:01N 33°44' W 118°12'1 2.8
2018-Feb-20 21:29N 33°45' W 118°13'0 0.1
2018-Feb-20 20:58N 33°45' W 118°13'1 1.5
2018-Feb-20 20:30N 33°45' W 118°13'2 4.4
2018-Feb-20 20:00N 33°43' W 118°11'3 5.9
2018-Feb-20 19:30N 33°40' W 118°11'1 1.8
2018-Feb-20 18:51N 33°40' W 118°09'3 9.2
2018-Feb-20 18:30N 33°43' W 118°11'4 7.4
2018-Feb-20 18:00N 33°43' W 118°15'2 2.7
2018-Feb-20 17:25N 33°44' W 118°17'0 0.0
2018-Feb-20 17:00N 33°44' W 118°17'0 0.0
2018-Feb-20 16:30N 33°44' W 118°17'0 0.2
2018-Feb-20 16:00N 33°44' W 118°17'3 6.4
2018-Feb-20 15:31N 33°44' W 118°13'1 1.2
2018-Feb-20 15:01N 33°45' W 118°12'2 3.0
2018-Feb-20 14:28N 33°45' W 118°10'1 1.1
2018-Feb-20 13:56N 33°44' W 118°11'410.3
2018-Feb-20 13:30N 33°43' W 118°16'1 1.9
2018-Feb-20 13:00N 33°44' W 118°15'0 0.7
2018-Feb-20 12:30N 33°44' W 118°15'1 2.6
2018-Feb-20 11:59N 33°43' W 118°15'0 0.3
2018-Feb-20 11:27N 33°43' W 118°15'1 2.9
2018-Feb-20 10:58N 33°44' W 118°16'0 0.2
2018-Feb-20 10:18N 33°44' W 118°17'0 0.0
2018-Feb-20 09:59N 33°44' W 118°17'0 0.0
2018-Feb-20 09:27N 33°44' W 118°17'0 0.0
2018-Feb-20 08:56N 33°44' W 118°17'0 0.0
2018-Feb-20 06:33N 33°44' W 118°17'0 0.0
2018-Feb-20 06:10N 33°44' W 118°17'0 0.0
2018-Feb-20 02:16N 33°44' W 118°17'0 0.3
2018-Feb-20 02:01N 33°44' W 118°17'3 5.7
2018-Feb-20 01:30N 33°43' W 118°13'2 4.4
2018-Feb-20 00:58N 33°45' W 118°11'4 8.2
2018-Feb-20 00:30N 33°43' W 118°15'2 3.4
2018-Feb-20 00:00N 33°44' W 118°17'0 0.0
2018-Feb-19 23:30N 33°44' W 118°17'0 0.0
2018-Feb-19 23:00N 33°44' W 118°17'0 0.0
2018-Feb-19 22:30N 33°44' W 118°17'0 0.0
2018-Feb-19 22:00N 33°44' W 118°17'0 0.0
2018-Feb-19 21:30N 33°44' W 118°17'0 0.0
2018-Feb-19 21:00N 33°44' W 118°17'0 0.0
2018-Feb-19 20:29N 33°44' W 118°17'0 0.0
2018-Feb-19 20:00N 33°44' W 118°17'0 0.0
2018-Feb-19 19:30N 33°44' W 118°17'0 0.0
2018-Feb-19 18:57N 33°44' W 118°17'0 0.0
2018-Feb-19 18:28N 33°44' W 118°17'0 0.0
2018-Feb-19 17:49N 33°44' W 118°17'0 0.0
2018-Feb-19 17:30N 33°44' W 118°17'0 0.0
2018-Feb-19 17:00N 33°44' W 118°17'0 0.0
2018-Feb-19 16:30N 33°44' W 118°17'1 2.4
2018-Feb-19 16:00N 33°43' W 118°16'3 5.1
2018-Feb-19 15:30N 33°45' W 118°14'0 0.9
2018-Feb-19 15:00N 33°45' W 118°14'2 3.2
2018-Feb-19 14:30N 33°44' W 118°13'1 1.0
2018-Feb-19 13:14N 33°44' W 118°11'0 0.6
2018-Feb-19 12:40N 33°44' W 118°12'1 2.6
2018-Feb-19 12:26N 33°44' W 118°11'3 7.0
2018-Feb-19 12:00N 33°43' W 118°14'2 4.0
2018-Feb-19 11:27N 33°44' W 118°17'0 0.0
2018-Feb-19 05:59N 33°44' W 118°17'0 0.0
2018-Feb-19 05:30N 33°44' W 118°17'2 3.1
2018-Feb-19 04:49N 33°43' W 118°14'2 5.1
2018-Feb-19 04:25N 33°44' W 118°12'2 4.7
2018-Feb-19 03:59N 33°46' W 118°13'1 1.1
2018-Feb-19 03:30N 33°46' W 118°13'0 0.3
2018-Feb-19 03:00N 33°46' W 118°13'1 2.1
2018-Feb-19 02:30N 33°46' W 118°15'2 3.4
2018-Feb-19 02:00N 33°45' W 118°16'0 0.8
2018-Feb-19 01:30N 33°45' W 118°16'1 1.6
2018-Feb-19 01:00N 33°45' W 118°16'1 1.0
2018-Feb-19 00:13N 33°44' W 118°17'0 0.0
2018-Feb-18 23:59N 33°44' W 118°17'0 0.0
2018-Feb-18 23:30N 33°44' W 118°17'1 2.5
2018-Feb-18 23:00N 33°43' W 118°16'1 2.4
2018-Feb-18 22:30N 33°44' W 118°15'1 1.2
2018-Feb-18 22:00N 33°44' W 118°16'1 1.4
2018-Feb-18 21:27N 33°44' W 118°17'0 0.0
2018-Feb-18 21:00N 33°44' W 118°17'0 0.0
2018-Feb-18 20:30N 33°44' W 118°17'0 0.0
2018-Feb-18 20:00N 33°44' W 118°17'0 0.0
2018-Feb-18 19:29N 33°44' W 118°17'0 0.0
2018-Feb-18 19:00N 33°44' W 118°17'0 0.0
2018-Feb-18 18:30N 33°44' W 118°17'0 0.0
2018-Feb-18 18:00N 33°44' W 118°17'0 0.0
2018-Feb-18 17:29N 33°44' W 118°17'0 0.0
2018-Feb-18 17:00N 33°44' W 118°17'0 0.0
2018-Feb-18 16:30N 33°44' W 118°17'0 0.0
2018-Feb-18 16:00N 33°44' W 118°17'0 0.0
2018-Feb-18 15:30N 33°44' W 118°17'0 0.2
2018-Feb-18 15:00N 33°44' W 118°16'0 0.0
2018-Feb-18 14:30N 33°44' W 118°16'1 2.2
2018-Feb-18 14:00N 33°45' W 118°16'0 0.2
2018-Feb-18 13:30N 33°45' W 118°16'3 4.0
2018-Feb-18 12:52N 33°43' W 118°15'1 3.5
2018-Feb-18 12:29N 33°44' W 118°15'1 1.6
2018-Feb-18 12:00N 33°43' W 118°16'0 0.5
2018-Feb-18 11:22N 33°43' W 118°16'1 1.6
2018-Feb-18 11:00N 33°44' W 118°17'0 0.8
2018-Feb-18 10:24N 33°43' W 118°16'1 0.4
2018-Feb-18 08:34N 33°44' W 118°17'0 0.0
2018-Feb-18 08:11N 33°44' W 118°17'0 0.0
2018-Feb-18 07:44N 33°44' W 118°17'0 0.0
2018-Feb-18 07:08N 33°44' W 118°17'0 0.0
2018-Feb-18 06:53N 33°44' W 118°17'0 0.0
2018-Feb-18 06:27N 33°44' W 118°17'0 0.0
2018-Feb-18 05:58N 33°44' W 118°17'0 0.0
2018-Feb-18 05:29N 33°44' W 118°17'0 0.0
2018-Feb-18 05:00N 33°44' W 118°17'0 0.0
2018-Feb-18 04:27N 33°44' W 118°17'1 1.8
2018-Feb-18 04:00N 33°45' W 118°17'1 2.2
2018-Feb-18 03:30N 33°46' W 118°16'0 0.0
2018-Feb-18 02:57N 33°46' W 118°16'0 0.2
2018-Feb-18 02:30N 33°46' W 118°16'1 1.5
2018-Feb-18 02:00N 33°45' W 118°16'3 5.1
2018-Feb-18 01:30N 33°43' W 118°15'2 3.4
2018-Feb-18 00:57N 33°42' W 118°13'0 0.1
2018-Feb-18 00:29N 33°42' W 118°13'3 6.5
2018-Feb-18 00:00N 33°43' W 118°16'0 0.9
2018-Feb-17 23:30N 33°44' W 118°17'0 0.0
2018-Feb-17 23:00N 33°44' W 118°17'0 0.0
2018-Feb-17 22:28N 33°44' W 118°17'2 4.7
2018-Feb-17 22:00N 33°46' W 118°15'1 1.9
2018-Feb-17 21:30N 33°45' W 118°16'2 3.4
2018-Feb-17 21:00N 33°43' W 118°16'0 0.9
2018-Feb-17 20:30N 33°43' W 118°16'1 0.9
2018-Feb-17 19:52N 33°44' W 118°17'0 0.0
2018-Feb-17 19:15N 33°44' W 118°17'0 0.0
2018-Feb-17 18:53N 33°44' W 118°17'0 0.0
2018-Feb-17 18:25N 33°44' W 118°17'0 0.0
2018-Feb-17 17:58N 33°44' W 118°17'0 0.0
2018-Feb-17 17:29N 33°44' W 118°17'0 0.0
2018-Feb-17 17:00N 33°44' W 118°17'0 0.0
2018-Feb-17 16:30N 33°44' W 118°17'0 0.0
2018-Feb-17 16:00N 33°44' W 118°17'0 0.0
2018-Feb-17 15:25N 33°44' W 118°17'0 0.0
2018-Feb-17 15:00N 33°44' W 118°17'0 0.0
2018-Feb-17 14:30N 33°44' W 118°17'0 0.0
2018-Feb-17 13:58N 33°44' W 118°17'0 0.0
2018-Feb-17 13:26N 33°44' W 118°17'0 0.0
2018-Feb-17 13:00N 33°44' W 118°17'2 3.4
2018-Feb-17 12:30N 33°45' W 118°17'1 2.5
2018-Feb-17 12:00N 33°46' W 118°15'2 3.0
2018-Feb-17 11:29N 33°46' W 118°13'1 1.5
2018-Feb-17 10:57N 33°46' W 118°14'0 1.0
2018-Feb-17 10:30N 33°46' W 118°13'3 6.3
2018-Feb-17 10:00N 33°43' W 118°14'2 3.4
2018-Feb-17 09:23N 33°44' W 118°17'0 0.0
2018-Feb-17 08:53N 33°44' W 118°17'0 0.0
2018-Feb-17 04:05N 33°44' W 118°17'0 0.0
2018-Feb-17 03:54N 33°44' W 118°17'0 0.0
2018-Feb-17 03:29N 33°44' W 118°17'0 0.0
2018-Feb-17 02:43N 33°44' W 118°17'0 0.0
2018-Feb-17 02:29N 33°44' W 118°17'0 0.0
2018-Feb-17 01:48N 33°44' W 118°17'0 0.0
2018-Feb-17 01:27N 33°44' W 118°17'0 0.0
2018-Feb-17 01:00N 33°44' W 118°17'0 0.0
2018-Feb-17 00:30N 33°44' W 118°17'0 0.0
2018-Feb-17 00:00N 33°44' W 118°17'0 0.0
2018-Feb-16 23:30N 33°44' W 118°17'0 0.0
2018-Feb-16 23:00N 33°44' W 118°17'0 0.0
2018-Feb-16 22:30N 33°44' W 118°17'0 0.0
2018-Feb-16 22:00N 33°44' W 118°17'0 0.0
2018-Feb-16 21:30N 33°44' W 118°17'0 0.1
2018-Feb-16 21:00N 33°44' W 118°17'2 4.2
2018-Feb-16 20:30N 33°43' W 118°14'3 5.2
2018-Feb-16 20:00N 33°44' W 118°11'1 1.2
2018-Feb-16 19:29N 33°44' W 118°11'1 2.0
2018-Feb-16 18:59N 33°43' W 118°11'3 5.2
2018-Feb-16 18:30N 33°43' W 118°14'2 4.2
2018-Feb-16 18:00N 33°44' W 118°17'0 0.0
2018-Feb-16 17:30N 33°44' W 118°17'0 0.0
2018-Feb-16 17:00N 33°44' W 118°17'0 0.0
2018-Feb-16 16:29N 33°44' W 118°17'0 0.0
2018-Feb-16 16:00N 33°44' W 118°17'0 0.0
2018-Feb-16 15:30N 33°44' W 118°17'0 0.0
2018-Feb-16 15:00N 33°44' W 118°17'0 0.0
2018-Feb-16 14:30N 33°44' W 118°17'0 0.0
2018-Feb-16 13:55N 33°44' W 118°17'0 0.0
2018-Feb-16 13:28N 33°44' W 118°17'0 0.0
2018-Feb-16 12:56N 33°44' W 118°17'0 0.0
2018-Feb-16 12:26N 33°44' W 118°17'0 0.0
2018-Feb-16 07:14N 33°44' W 118°17'0 0.0
2018-Feb-16 06:58N 33°44' W 118°17'0 0.0
2018-Feb-16 06:30N 33°44' W 118°17'0 0.0
2018-Feb-16 06:00N 33°44' W 118°17'0 0.0
2018-Feb-16 05:30N 33°44' W 118°17'0 0.0
2018-Feb-16 05:00N 33°44' W 118°17'0 0.0
2018-Feb-16 04:20N 33°44' W 118°17'0 0.0
2018-Feb-16 03:55N 33°44' W 118°17'0 0.0
2018-Feb-16 02:29N 33°44' W 118°17'1 1.9
2018-Feb-16 02:00N 33°45' W 118°16'1 1.6
2018-Feb-16 01:30N 33°44' W 118°17'0 0.3
2018-Feb-16 01:00N 33°44' W 118°17'0 0.0
2018-Feb-16 00:30N 33°44' W 118°17'2 3.8
2018-Feb-16 00:00N 33°43' W 118°15'3 5.7
2018-Feb-15 23:30N 33°45' W 118°12'1 1.5
2018-Feb-15 23:00N 33°44' W 118°12'1 1.5
2018-Feb-15 22:30N 33°44' W 118°11'2 3.4
2018-Feb-15 22:00N 33°45' W 118°13'0 0.7
2018-Feb-15 21:30N 33°45' W 118°13'0 0.0
2018-Feb-15 21:00N 33°45' W 118°13'0 0.0
2018-Feb-15 20:30N 33°45' W 118°13'1 2.8
2018-Feb-15 19:59N 33°44' W 118°12'2 3.3
2018-Feb-15 19:25N 33°42' W 118°11'1 3.1
2018-Feb-15 19:00N 33°41' W 118°11'0 0.9
2018-Feb-15 18:30N 33°41' W 118°11'2 4.6
2018-Feb-15 18:00N 33°44' W 118°11'1 1.2
2018-Feb-15 17:30N 33°44' W 118°12'0 0.4
2018-Feb-15 17:00N 33°44' W 118°12'3 7.0
2018-Feb-15 16:30N 33°43' W 118°16'1 1.6
2018-Feb-15 16:00N 33°44' W 118°17'0 0.0
2018-Feb-15 15:30N 33°44' W 118°17'0 0.0
2018-Feb-15 15:00N 33°44' W 118°17'0 0.0
2018-Feb-15 14:30N 33°44' W 118°17'0 0.0
2018-Feb-15 13:59N 33°44' W 118°17'0 0.0
2018-Feb-15 13:29N 33°44' W 118°17'2 2.8
2018-Feb-15 12:46N 33°43' W 118°14'2 8.4
2018-Feb-15 12:30N 33°44' W 118°12'0 0.7
2018-Feb-15 11:56N 33°44' W 118°12'2 1.4
2018-Feb-15 10:33N 33°43' W 118°14'0 8.5
2018-Feb-15 10:30N 33°43' W 118°14'2 3.1
2018-Feb-15 09:47N 33°44' W 118°17'0 0.0
2018-Feb-15 09:22N 33°44' W 118°17'0 0.0
2018-Feb-15 08:58N 33°44' W 118°17'0 0.0
2018-Feb-15 08:28N 33°44' W 118°17'0 0.0
2018-Feb-15 07:51N 33°44' W 118°17'0 0.0
2018-Feb-15 07:29N 33°44' W 118°17'0 0.0
2018-Feb-15 06:42N 33°44' W 118°17'0 0.0
2018-Feb-15 06:24N 33°44' W 118°17'0 0.0
2018-Feb-15 06:00N 33°44' W 118°17'0 0.0
2018-Feb-15 05:30N 33°44' W 118°17'0 0.0
2018-Feb-15 05:00N 33°44' W 118°17'0 0.0
2018-Feb-15 04:22N 33°44' W 118°17'0 0.0
2018-Feb-15 03:59N 33°44' W 118°17'0 0.0
2018-Feb-15 03:25N 33°44' W 118°17'0 0.0
2018-Feb-15 02:59N 33°44' W 118°17'1 1.1
2018-Feb-15 02:30N 33°43' W 118°16'0 0.0
2018-Feb-15 02:00N 33°43' W 118°16'1 1.2
2018-Feb-15 01:30N 33°44' W 118°17'0 0.0
2018-Feb-15 00:59N 33°44' W 118°17'0 0.0
2018-Feb-15 00:30N 33°44' W 118°17'0 0.0
2018-Feb-15 00:00N 33°44' W 118°17'3 5.9
2018-Feb-14 23:30N 33°44' W 118°13'1 1.2
2018-Feb-14 23:00N 33°44' W 118°12'2 3.1
2018-Feb-14 22:30N 33°43' W 118°11'2 4.3
2018-Feb-14 22:00N 33°45' W 118°13'1 1.6
2018-Feb-14 21:30N 33°45' W 118°13'0 0.0
2018-Feb-14 21:00N 33°45' W 118°13'0 0.9
2018-Feb-14 20:30N 33°45' W 118°13'2 4.7
2018-Feb-14 20:00N 33°43' W 118°11'2 4.6
2018-Feb-14 19:28N 33°41' W 118°09'3 6.4
2018-Feb-14 19:00N 33°44' W 118°12'3 6.1
2018-Feb-14 18:30N 33°43' W 118°15'1 2.6
2018-Feb-14 17:59N 33°44' W 118°17'0 0.0
2018-Feb-14 17:30N 33°44' W 118°17'0 0.0
2018-Feb-14 16:58N 33°44' W 118°17'0 0.0
2018-Feb-14 16:30N 33°44' W 118°17'0 0.0
2018-Feb-14 16:00N 33°44' W 118°17'0 0.0
2018-Feb-14 15:30N 33°44' W 118°17'1 1.8
2018-Feb-14 15:00N 33°45' W 118°17'2 4.9
2018-Feb-14 14:30N 33°46' W 118°14'0 0.7
2018-Feb-14 14:00N 33°46' W 118°14'1 2.3
2018-Feb-14 13:30N 33°45' W 118°13'2 1.9
2018-Feb-14 12:31N 33°43' W 118°13'0 5.9
2018-Feb-14 12:30N 33°43' W 118°13'3 5.5
2018-Feb-14 11:59N 33°44' W 118°17'0 0.0
2018-Feb-14 11:25N 33°44' W 118°17'0 0.0
2018-Feb-14 10:58N 33°44' W 118°17'0 0.0
2018-Feb-14 10:30N 33°44' W 118°17'0 0.0
2018-Feb-14 09:57N 33°44' W 118°17'0 0.0
2018-Feb-14 08:38N 33°44' W 118°17'0 0.0
2018-Feb-14 08:20N 33°44' W 118°17'0 0.0
2018-Feb-14 07:56N 33°44' W 118°17'0 0.0
2018-Feb-14 07:28N 33°44' W 118°17'0 0.0
2018-Feb-14 06:48N 33°44' W 118°17'0 0.0
2018-Feb-14 03:31N 33°44' W 118°17'0 0.0
2018-Feb-14 03:23N 33°44' W 118°17'0 0.0
2018-Feb-14 02:48N 33°44' W 118°17'0 0.0
2018-Feb-14 02:30N 33°44' W 118°17'0 0.0
2018-Feb-14 02:00N 33°44' W 118°17'1 2.4
2018-Feb-14 01:30N 33°45' W 118°16'1 2.0
2018-Feb-14 01:00N 33°46' W 118°16'0 0.1
2018-Feb-14 00:30N 33°46' W 118°16'1 1.5
2018-Feb-14 00:00N 33°45' W 118°16'0 0.9
2018-Feb-13 23:31N 33°45' W 118°16'1 2.9
2018-Feb-13 23:00N 33°44' W 118°17'2 3.3
2018-Feb-13 22:30N 33°43' W 118°15'1 1.5
2018-Feb-13 22:00N 33°43' W 118°16'1 1.4
2018-Feb-13 21:26N 33°44' W 118°17'0 0.0
2018-Feb-13 21:00N 33°44' W 118°17'0 0.0
2018-Feb-13 20:30N 33°44' W 118°17'0 0.0
2018-Feb-13 19:59N 33°44' W 118°17'0 0.0
2018-Feb-13 19:26N 33°44' W 118°17'0 0.0
2018-Feb-13 18:51N 33°44' W 118°17'0 0.0
2018-Feb-13 18:28N 33°44' W 118°17'0 0.0
2018-Feb-13 17:59N 33°44' W 118°17'0 0.0
2018-Feb-13 17:24N 33°44' W 118°17'0 0.0
2018-Feb-13 17:00N 33°44' W 118°17'0 0.0
2018-Feb-13 16:30N 33°44' W 118°17'  
Track history (hours):
 
Tides and Currents Weather Stations Pressure Air Temp Water Temp Dewpoint Dewpoint Depression Visibility Wind Speed Wind Dir Waves Ship Positions

Independence

Owner: AMNAV Maritime Corporation, Oakland, CA. More information available from US FCC via Universal Licensing System and Coast Guard Vessel Documentation Center.

Last reported at 2018-Feb-23 16:29 UTC. Time now 2018-Feb-23 16:34 UTC.
Position N 33°44' W 118°17'.

Length 24 m; draft 4.9 m.

Type: Tug. MMSI: 367175860.

Date/timePositionNaut miles runAvg speedWind from/ knotsBaromVisibWave heightAir tempDewpointWater temp
2018-Feb-23 16:29N 33°44' W 118°17'0 0.0
2018-Feb-23 15:59N 33°44' W 118°17'0 0.0
2018-Feb-23 15:30N 33°44' W 118°17'0 0.0
2018-Feb-23 15:00N 33°44' W 118°17'0 0.0
2018-Feb-23 14:30N 33°44' W 118°17'0 0.0
2018-Feb-23 12:20N 33°44' W 118°17'0 0.0
2018-Feb-23 11:49N 33°44' W 118°17'0 0.0
2018-Feb-23 08:00N 33°44' W 118°17'0 0.0
2018-Feb-23 04:11N 33°44' W 118°17'0 0.0
2018-Feb-23 03:45N 33°44' W 118°17'0 0.0
2018-Feb-23 03:30N 33°44' W 118°17'1 1.6
2018-Feb-23 02:58N 33°44' W 118°16'0 1.0
2018-Feb-23 02:31N 33°43' W 118°16'1 1.1
2018-Feb-23 01:48N 33°44' W 118°17'0 0.0
2018-Feb-23 01:29N 33°44' W 118°17'0 0.0
2018-Feb-23 01:00N 33°44' W 118°17'1 1.1
2018-Feb-23 00:31N 33°44' W 118°17'1 2.4
2018-Feb-23 00:00N 33°46' W 118°17'1 1.1
2018-Feb-22 23:31N 33°45' W 118°16'2 4.2
2018-Feb-22 23:01N 33°43' W 118°16'1 1.2
2018-Feb-22 22:29N 33°43' W 118°15'1 3.1
2018-Feb-22 22:00N 33°44' W 118°17'0 0.0
2018-Feb-22 21:26N 33°44' W 118°17'0 0.0
2018-Feb-22 21:00N 33°44' W 118°17'0 0.0
2018-Feb-22 20:27N 33°44' W 118°17'0 0.0
2018-Feb-22 19:59N 33°44' W 118°17'0 0.0
2018-Feb-22 19:27N 33°44' W 118°17'0 0.0
2018-Feb-22 19:00N 33°44' W 118°17'0 0.0
2018-Feb-22 18:30N 33°44' W 118°17'0 0.0
2018-Feb-22 18:00N 33°44' W 118°17'0 0.0
2018-Feb-22 17:29N 33°44' W 118°17'0 0.0
2018-Feb-22 16:44N 33°44' W 118°17'0 0.0
2018-Feb-22 16:30N 33°44' W 118°17'0 0.0
2018-Feb-22 16:00N 33°44' W 118°17'0 0.0
2018-Feb-22 15:30N 33°44' W 118°17'3 6.3
2018-Feb-22 15:00N 33°44' W 118°13'1 1.1
2018-Feb-22 14:30N 33°44' W 118°12'0 0.8
2018-Feb-22 13:58N 33°44' W 118°12'1 1.0
2018-Feb-22 12:54N 33°43' W 118°12'2 6.2
2018-Feb-22 12:30N 33°43' W 118°15'2 1.9
2018-Feb-22 11:30N 33°44' W 118°17'0 0.0
2018-Feb-22 10:54N 33°44' W 118°17'0 0.0
2018-Feb-22 08:38N 33°44' W 118°17'0 0.0
2018-Feb-22 08:26N 33°44' W 118°17'0 0.0
2018-Feb-22 07:49N 33°44' W 118°17'0 0.0
2018-Feb-22 07:30N 33°44' W 118°17'0 0.0
2018-Feb-22 06:59N 33°44' W 118°17'0 0.0
2018-Feb-22 06:11N 33°44' W 118°17'0 0.0
2018-Feb-22 05:59N 33°44' W 118°17'0 0.0
2018-Feb-22 05:28N 33°44' W 118°17'0 0.0
2018-Feb-22 04:59N 33°44' W 118°17'0 0.0
2018-Feb-22 04:30N 33°44' W 118°17'0 0.0
2018-Feb-22 03:57N 33°44' W 118°17'0 0.0
2018-Feb-22 03:29N 33°44' W 118°17'0 0.0
2018-Feb-22 02:59N 33°44' W 118°17'0 0.0
2018-Feb-22 02:28N 33°44' W 118°17'0 0.0
2018-Feb-22 01:59N 33°44' W 118°17'0 0.0
2018-Feb-22 01:30N 33°44' W 118°17'2 4.1
2018-Feb-22 01:00N 33°43' W 118°14'3 6.5
2018-Feb-22 00:31N 33°44' W 118°11'1 1.4
2018-Feb-22 00:00N 33°44' W 118°10'1 1.6
2018-Feb-21 23:30N 33°44' W 118°11'2 4.3
2018-Feb-21 23:00N 33°45' W 118°13'0 0.0
2018-Feb-21 22:30N 33°45' W 118°13'0 0.0
2018-Feb-21 22:01N 33°45' W 118°13'2 3.1
2018-Feb-21 21:30N 33°44' W 118°12'2 3.7
2018-Feb-21 21:00N 33°45' W 118°13'0 0.9
2018-Feb-21 20:30N 33°45' W 118°13'0 0.2
2018-Feb-21 19:59N 33°45' W 118°13'1 1.4
2018-Feb-21 19:30N 33°45' W 118°13'3 6.0
2018-Feb-21 19:00N 33°44' W 118°16'0 0.6
2018-Feb-21 18:30N 33°44' W 118°17'0 0.0
2018-Feb-21 18:00N 33°44' W 118°17'0 0.0
2018-Feb-21 17:26N 33°44' W 118°17'0 0.0
2018-Feb-21 16:58N 33°44' W 118°17'0 0.0
2018-Feb-21 16:30N 33°44' W 118°17'0 0.0
2018-Feb-21 16:00N 33°44' W 118°17'0 0.0
2018-Feb-21 15:30N 33°44' W 118°17'1 2.8
2018-Feb-21 15:00N 33°45' W 118°16'2 3.6
2018-Feb-21 14:30N 33°46' W 118°14'1 1.3
2018-Feb-21 13:59N 33°46' W 118°13'2 3.6
2018-Feb-21 13:31N 33°44' W 118°13'1 1.3
2018-Feb-21 12:45N 33°43' W 118°12'2 7.1
2018-Feb-21 12:30N 33°43' W 118°14'2 0.3
2018-Feb-21 05:08N 33°44' W 118°17'0 0.0
2018-Feb-21 03:53N 33°44' W 118°17'0 0.0
2018-Feb-21 03:26N 33°44' W 118°17'0 0.0
2018-Feb-21 03:00N 33°44' W 118°17'0 0.0
2018-Feb-21 01:51N 33°44' W 118°17'0 0.0
2018-Feb-21 01:30N 33°44' W 118°17'0 0.0
2018-Feb-21 01:00N 33°44' W 118°17'0 0.0
2018-Feb-21 00:30N 33°44' W 118°17'0 0.0
2018-Feb-21 00:00N 33°44' W 118°17'2 3.2
2018-Feb-20 23:30N 33°43' W 118°15'3 5.2
2018-Feb-20 23:00N 33°45' W 118°14'0 0.5
2018-Feb-20 22:30N 33°45' W 118°14'2 3.2
2018-Feb-20 22:01N 33°44' W 118°12'1 2.8
2018-Feb-20 21:29N 33°45' W 118°13'0 0.1
2018-Feb-20 20:58N 33°45' W 118°13'1 1.5
2018-Feb-20 20:30N 33°45' W 118°13'2 4.4
2018-Feb-20 20:00N 33°43' W 118°11'3 5.9
2018-Feb-20 19:30N 33°40' W 118°11'1 1.8
2018-Feb-20 18:51N 33°40' W 118°09'3 9.2
2018-Feb-20 18:30N 33°43' W 118°11'4 7.4
2018-Feb-20 18:00N 33°43' W 118°15'2 2.7
2018-Feb-20 17:25N 33°44' W 118°17'0 0.0
2018-Feb-20 17:00N 33°44' W 118°17'0 0.0
2018-Feb-20 16:30N 33°44' W 118°17'0 0.2
2018-Feb-20 16:00N 33°44' W 118°17'3 6.4
2018-Feb-20 15:31N 33°44' W 118°13'1 1.2
2018-Feb-20 15:01N 33°45' W 118°12'2 3.0
2018-Feb-20 14:28N 33°45' W 118°10'1 1.1
2018-Feb-20 13:56N 33°44' W 118°11'410.3
2018-Feb-20 13:30N 33°43' W 118°16'1 1.9
2018-Feb-20 13:00N 33°44' W 118°15'0 0.7
2018-Feb-20 12:30N 33°44' W 118°15'1 2.6
2018-Feb-20 11:59N 33°43' W 118°15'0 0.3
2018-Feb-20 11:27N 33°43' W 118°15'1 2.9
2018-Feb-20 10:58N 33°44' W 118°16'0 0.2
2018-Feb-20 10:18N 33°44' W 118°17'0 0.0
2018-Feb-20 09:59N 33°44' W 118°17'0 0.0
2018-Feb-20 09:27N 33°44' W 118°17'0 0.0
2018-Feb-20 08:56N 33°44' W 118°17'0 0.0
2018-Feb-20 06:33N 33°44' W 118°17'0 0.0
2018-Feb-20 06:10N 33°44' W 118°17'0 0.0
2018-Feb-20 02:16N 33°44' W 118°17'0 0.3
2018-Feb-20 02:01N 33°44' W 118°17'3 5.7
2018-Feb-20 01:30N 33°43' W 118°13'2 4.4
2018-Feb-20 00:58N 33°45' W 118°11'4 8.2
2018-Feb-20 00:30N 33°43' W 118°15'2 3.4
2018-Feb-20 00:00N 33°44' W 118°17'0 0.0
2018-Feb-19 23:30N 33°44' W 118°17'0 0.0
2018-Feb-19 23:00N 33°44' W 118°17'0 0.0
2018-Feb-19 22:30N 33°44' W 118°17'0 0.0
2018-Feb-19 22:00N 33°44' W 118°17'0 0.0
2018-Feb-19 21:30N 33°44' W 118°17'0 0.0
2018-Feb-19 21:00N 33°44' W 118°17'0 0.0
2018-Feb-19 20:29N 33°44' W 118°17'0 0.0
2018-Feb-19 20:00N 33°44' W 118°17'0 0.0
2018-Feb-19 19:30N 33°44' W 118°17'0 0.0
2018-Feb-19 18:57N 33°44' W 118°17'0 0.0
2018-Feb-19 18:28N 33°44' W 118°17'0 0.0
2018-Feb-19 17:49N 33°44' W 118°17'0 0.0
2018-Feb-19 17:30N 33°44' W 118°17'0 0.0
2018-Feb-19 17:00N 33°44' W 118°17'0 0.0
2018-Feb-19 16:30N 33°44' W 118°17'1 2.4
2018-Feb-19 16:00N 33°43' W 118°16'3 5.1
2018-Feb-19 15:30N 33°45' W 118°14'0 0.9
2018-Feb-19 15:00N 33°45' W 118°14'2 3.2
2018-Feb-19 14:30N 33°44' W 118°13'1 1.0
2018-Feb-19 13:14N 33°44' W 118°11'0 0.6
2018-Feb-19 12:40N 33°44' W 118°12'1 2.6
2018-Feb-19 12:26N 33°44' W 118°11'3 7.0
2018-Feb-19 12:00N 33°43' W 118°14'2 4.0
2018-Feb-19 11:27N 33°44' W 118°17'0 0.0
2018-Feb-19 05:59N 33°44' W 118°17'0 0.0
2018-Feb-19 05:30N 33°44' W 118°17'2 3.1
2018-Feb-19 04:49N 33°43' W 118°14'2 5.1
2018-Feb-19 04:25N 33°44' W 118°12'2 4.7
2018-Feb-19 03:59N 33°46' W 118°13'1 1.1
2018-Feb-19 03:30N 33°46' W 118°13'0 0.3
2018-Feb-19 03:00N 33°46' W 118°13'1 2.1
2018-Feb-19 02:30N 33°46' W 118°15'2 3.4
2018-Feb-19 02:00N 33°45' W 118°16'0 0.8
2018-Feb-19 01:30N 33°45' W 118°16'1 1.6
2018-Feb-19 01:00N 33°45' W 118°16'1 1.0
2018-Feb-19 00:13N 33°44' W 118°17'0 0.0
2018-Feb-18 23:59N 33°44' W 118°17'0 0.0
2018-Feb-18 23:30N 33°44' W 118°17'1 2.5
2018-Feb-18 23:00N 33°43' W 118°16'1 2.4
2018-Feb-18 22:30N 33°44' W 118°15'1 1.2
2018-Feb-18 22:00N 33°44' W 118°16'1 1.4
2018-Feb-18 21:27N 33°44' W 118°17'0 0.0
2018-Feb-18 21:00N 33°44' W 118°17'0 0.0
2018-Feb-18 20:30N 33°44' W 118°17'0 0.0
2018-Feb-18 20:00N 33°44' W 118°17'0 0.0
2018-Feb-18 19:29N 33°44' W 118°17'0 0.0
2018-Feb-18 19:00N 33°44' W 118°17'0 0.0
2018-Feb-18 18:30N 33°44' W 118°17'0 0.0
2018-Feb-18 18:00N 33°44' W 118°17'0 0.0
2018-Feb-18 17:29N 33°44' W 118°17'0 0.0
2018-Feb-18 17:00N 33°44' W 118°17'0 0.0
2018-Feb-18 16:30N 33°44' W 118°17'0 0.0
2018-Feb-18 16:00N 33°44' W 118°17'0 0.0
2018-Feb-18 15:30N 33°44' W 118°17'0 0.2
2018-Feb-18 15:00N 33°44' W 118°16'0 0.0
2018-Feb-18 14:30N 33°44' W 118°16'1 2.2
2018-Feb-18 14:00N 33°45' W 118°16'0 0.2
2018-Feb-18 13:30N 33°45' W 118°16'3 4.0
2018-Feb-18 12:52N 33°43' W 118°15'1 3.5
2018-Feb-18 12:29N 33°44' W 118°15'1 1.6
2018-Feb-18 12:00N 33°43' W 118°16'0 0.5
2018-Feb-18 11:22N 33°43' W 118°16'1 1.6
2018-Feb-18 11:00N 33°44' W 118°17'0 0.8
2018-Feb-18 10:24N 33°43' W 118°16'1 0.4
2018-Feb-18 08:34N 33°44' W 118°17'0 0.0
2018-Feb-18 08:11N 33°44' W 118°17'0 0.0
2018-Feb-18 07:44N 33°44' W 118°17'0 0.0
2018-Feb-18 07:08N 33°44' W 118°17'0 0.0
2018-Feb-18 06:53N 33°44' W 118°17'0 0.0
2018-Feb-18 06:27N 33°44' W 118°17'0 0.0
2018-Feb-18 05:58N 33°44' W 118°17'0 0.0
2018-Feb-18 05:29N 33°44' W 118°17'0 0.0
2018-Feb-18 05:00N 33°44' W 118°17'0 0.0
2018-Feb-18 04:27N 33°44' W 118°17'1 1.8
2018-Feb-18 04:00N 33°45' W 118°17'1 2.2
2018-Feb-18 03:30N 33°46' W 118°16'0 0.0
2018-Feb-18 02:57N 33°46' W 118°16'0 0.2
2018-Feb-18 02:30N 33°46' W 118°16'1 1.5
2018-Feb-18 02:00N 33°45' W 118°16'3 5.1
2018-Feb-18 01:30N 33°43' W 118°15'2 3.4
2018-Feb-18 00:57N 33°42' W 118°13'0 0.1
2018-Feb-18 00:29N 33°42' W 118°13'3 6.5
2018-Feb-18 00:00N 33°43' W 118°16'0 0.9
2018-Feb-17 23:30N 33°44' W 118°17'0 0.0
2018-Feb-17 23:00N 33°44' W 118°17'0 0.0
2018-Feb-17 22:28N 33°44' W 118°17'2 4.7
2018-Feb-17 22:00N 33°46' W 118°15'1 1.9
2018-Feb-17 21:30N 33°45' W 118°16'2 3.4
2018-Feb-17 21:00N 33°43' W 118°16'0 0.9
2018-Feb-17 20:30N 33°43' W 118°16'1 0.9
2018-Feb-17 19:52N 33°44' W 118°17'0 0.0
2018-Feb-17 19:15N 33°44' W 118°17'0 0.0
2018-Feb-17 18:53N 33°44' W 118°17'0 0.0
2018-Feb-17 18:25N 33°44' W 118°17'0 0.0
2018-Feb-17 17:58N 33°44' W 118°17'0 0.0
2018-Feb-17 17:29N 33°44' W 118°17'0 0.0
2018-Feb-17 17:00N 33°44' W 118°17'0 0.0
2018-Feb-17 16:30N 33°44' W 118°17'0 0.0
2018-Feb-17 16:00N 33°44' W 118°17'0 0.0
2018-Feb-17 15:25N 33°44' W 118°17'0 0.0
2018-Feb-17 15:00N 33°44' W 118°17'0 0.0
2018-Feb-17 14:30N 33°44' W 118°17'0 0.0
2018-Feb-17 13:58N 33°44' W 118°17'0 0.0
2018-Feb-17 13:26N 33°44' W 118°17'0 0.0
2018-Feb-17 13:00N 33°44' W 118°17'2 3.4
2018-Feb-17 12:30N 33°45' W 118°17'1 2.5
2018-Feb-17 12:00N 33°46' W 118°15'2 3.0
2018-Feb-17 11:29N 33°46' W 118°13'1 1.5
2018-Feb-17 10:57N 33°46' W 118°14'0 1.0
2018-Feb-17 10:30N 33°46' W 118°13'3 6.3
2018-Feb-17 10:00N 33°43' W 118°14'2 3.4
2018-Feb-17 09:23N 33°44' W 118°17'0 0.0
2018-Feb-17 08:53N 33°44' W 118°17'0 0.0
2018-Feb-17 04:05N 33°44' W 118°17'0 0.0
2018-Feb-17 03:54N 33°44' W 118°17'0 0.0
2018-Feb-17 03:29N 33°44' W 118°17'0 0.0
2018-Feb-17 02:43N 33°44' W 118°17'0 0.0
2018-Feb-17 02:29N 33°44' W 118°17'0 0.0
2018-Feb-17 01:48N 33°44' W 118°17'0 0.0
2018-Feb-17 01:27N 33°44' W 118°17'0 0.0
2018-Feb-17 01:00N 33°44' W 118°17'0 0.0
2018-Feb-17 00:30N 33°44' W 118°17'0 0.0
2018-Feb-17 00:00N 33°44' W 118°17'0 0.0
2018-Feb-16 23:30N 33°44' W 118°17'0 0.0
2018-Feb-16 23:00N 33°44' W 118°17'0 0.0
2018-Feb-16 22:30N 33°44' W 118°17'0 0.0
2018-Feb-16 22:00N 33°44' W 118°17'0 0.0
2018-Feb-16 21:30N 33°44' W 118°17'0 0.1
2018-Feb-16 21:00N 33°44' W 118°17'2 4.2
2018-Feb-16 20:30N 33°43' W 118°14'3 5.2
2018-Feb-16 20:00N 33°44' W 118°11'1 1.2
2018-Feb-16 19:29N 33°44' W 118°11'1 2.0
2018-Feb-16 18:59N 33°43' W 118°11'3 5.2
2018-Feb-16 18:30N 33°43' W 118°14'2 4.2
2018-Feb-16 18:00N 33°44' W 118°17'0 0.0
2018-Feb-16 17:30N 33°44' W 118°17'0 0.0
2018-Feb-16 17:00N 33°44' W 118°17'0 0.0
2018-Feb-16 16:29N 33°44' W 118°17'0 0.0
2018-Feb-16 16:00N 33°44' W 118°17'0 0.0
2018-Feb-16 15:30N 33°44' W 118°17'0 0.0
2018-Feb-16 15:00N 33°44' W 118°17'0 0.0
2018-Feb-16 14:30N 33°44' W 118°17'0 0.0
2018-Feb-16 13:55N 33°44' W 118°17'0 0.0
2018-Feb-16 13:28N 33°44' W 118°17'0 0.0
2018-Feb-16 12:56N 33°44' W 118°17'0 0.0
2018-Feb-16 12:26N 33°44' W 118°17'0 0.0
2018-Feb-16 07:14N 33°44' W 118°17'0 0.0
2018-Feb-16 06:58N 33°44' W 118°17'0 0.0
2018-Feb-16 06:30N 33°44' W 118°17'0 0.0
2018-Feb-16 06:00N 33°44' W 118°17'0 0.0
2018-Feb-16 05:30N 33°44' W 118°17'0 0.0
2018-Feb-16 05:00N 33°44' W 118°17'0 0.0
2018-Feb-16 04:20N 33°44' W 118°17'0 0.0
2018-Feb-16 03:55N 33°44' W 118°17'0 0.0
2018-Feb-16 02:29N 33°44' W 118°17'1 1.9
2018-Feb-16 02:00N 33°45' W 118°16'1 1.6
2018-Feb-16 01:30N 33°44' W 118°17'0 0.3
2018-Feb-16 01:00N 33°44' W 118°17'0 0.0
2018-Feb-16 00:30N 33°44' W 118°17'2 3.8
2018-Feb-16 00:00N 33°43' W 118°15'3 5.7
2018-Feb-15 23:30N 33°45' W 118°12'1 1.5
2018-Feb-15 23:00N 33°44' W 118°12'1 1.5
2018-Feb-15 22:30N 33°44' W 118°11'2 3.4
2018-Feb-15 22:00N 33°45' W 118°13'0 0.7
2018-Feb-15 21:30N 33°45' W 118°13'0 0.0
2018-Feb-15 21:00N 33°45' W 118°13'0 0.0
2018-Feb-15 20:30N 33°45' W 118°13'1 2.8
2018-Feb-15 19:59N 33°44' W 118°12'2 3.3
2018-Feb-15 19:25N 33°42' W 118°11'1 3.1
2018-Feb-15 19:00N 33°41' W 118°11'0 0.9
2018-Feb-15 18:30N 33°41' W 118°11'2 4.6
2018-Feb-15 18:00N 33°44' W 118°11'1 1.2
2018-Feb-15 17:30N 33°44' W 118°12'0 0.4
2018-Feb-15 17:00N 33°44' W 118°12'3 7.0
2018-Feb-15 16:30N 33°43' W 118°16'1 1.6
2018-Feb-15 16:00N 33°44' W 118°17'0 0.0
2018-Feb-15 15:30N 33°44' W 118°17'0 0.0
2018-Feb-15 15:00N 33°44' W 118°17'0 0.0
2018-Feb-15 14:30N 33°44' W 118°17'0 0.0
2018-Feb-15 13:59N 33°44' W 118°17'0 0.0
2018-Feb-15 13:29N 33°44' W 118°17'2 2.8
2018-Feb-15 12:46N 33°43' W 118°14'2 8.4
2018-Feb-15 12:30N 33°44' W 118°12'0 0.7
2018-Feb-15 11:56N 33°44' W 118°12'2 1.4
2018-Feb-15 10:33N 33°43' W 118°14'0 8.5
2018-Feb-15 10:30N 33°43' W 118°14'2 3.1
2018-Feb-15 09:47N 33°44' W 118°17'0 0.0
2018-Feb-15 09:22N 33°44' W 118°17'0 0.0
2018-Feb-15 08:58N 33°44' W 118°17'0 0.0
2018-Feb-15 08:28N 33°44' W 118°17'0 0.0
2018-Feb-15 07:51N 33°44' W 118°17'0 0.0
2018-Feb-15 07:29N 33°44' W 118°17'0 0.0
2018-Feb-15 06:42N 33°44' W 118°17'0 0.0
2018-Feb-15 06:24N 33°44' W 118°17'0 0.0
2018-Feb-15 06:00N 33°44' W 118°17'0 0.0
2018-Feb-15 05:30N 33°44' W 118°17'0 0.0
2018-Feb-15 05:00N 33°44' W 118°17'0 0.0
2018-Feb-15 04:22N 33°44' W 118°17'0 0.0
2018-Feb-15 03:59N 33°44' W 118°17'0 0.0
2018-Feb-15 03:25N 33°44' W 118°17'0 0.0
2018-Feb-15 02:59N 33°44' W 118°17'1 1.1
2018-Feb-15 02:30N 33°43' W 118°16'0 0.0
2018-Feb-15 02:00N 33°43' W 118°16'1 1.2
2018-Feb-15 01:30N 33°44' W 118°17'0 0.0
2018-Feb-15 00:59N 33°44' W 118°17'0 0.0
2018-Feb-15 00:30N 33°44' W 118°17'0 0.0
2018-Feb-15 00:00N 33°44' W 118°17'3 5.9
2018-Feb-14 23:30N 33°44' W 118°13'1 1.2
2018-Feb-14 23:00N 33°44' W 118°12'2 3.1
2018-Feb-14 22:30N 33°43' W 118°11'2 4.3
2018-Feb-14 22:00N 33°45' W 118°13'1 1.6
2018-Feb-14 21:30N 33°45' W 118°13'0 0.0
2018-Feb-14 21:00N 33°45' W 118°13'0 0.9
2018-Feb-14 20:30N 33°45' W 118°13'2 4.7
2018-Feb-14 20:00N 33°43' W 118°11'2 4.6
2018-Feb-14 19:28N 33°41' W 118°09'3 6.4
2018-Feb-14 19:00N 33°44' W 118°12'3 6.1
2018-Feb-14 18:30N 33°43' W 118°15'1 2.6
2018-Feb-14 17:59N 33°44' W 118°17'0 0.0
2018-Feb-14 17:30N 33°44' W 118°17'0 0.0
2018-Feb-14 16:58N 33°44' W 118°17'0 0.0
2018-Feb-14 16:30N 33°44' W 118°17'0 0.0
2018-Feb-14 16:00N 33°44' W 118°17'0 0.0
2018-Feb-14 15:30N 33°44' W 118°17'1 1.8
2018-Feb-14 15:00N 33°45' W 118°17'2 4.9
2018-Feb-14 14:30N 33°46' W 118°14'0 0.7
2018-Feb-14 14:00N 33°46' W 118°14'1 2.3
2018-Feb-14 13:30N 33°45' W 118°13'2 1.9
2018-Feb-14 12:31N 33°43' W 118°13'0 5.9
2018-Feb-14 12:30N 33°43' W 118°13'3 5.5
2018-Feb-14 11:59N 33°44' W 118°17'0 0.0
2018-Feb-14 11:25N 33°44' W 118°17'0 0.0
2018-Feb-14 10:58N 33°44' W 118°17'0 0.0
2018-Feb-14 10:30N 33°44' W 118°17'0 0.0
2018-Feb-14 09:57N 33°44' W 118°17'0 0.0
2018-Feb-14 08:38N 33°44' W 118°17'0 0.0
2018-Feb-14 08:20N 33°44' W 118°17'0 0.0
2018-Feb-14 07:56N 33°44' W 118°17'0 0.0
2018-Feb-14 07:28N 33°44' W 118°17'0 0.0
2018-Feb-14 06:48N 33°44' W 118°17'0 0.0
2018-Feb-14 03:31N 33°44' W 118°17'0 0.0
2018-Feb-14 03:23N 33°44' W 118°17'0 0.0
2018-Feb-14 02:48N 33°44' W 118°17'0 0.0
2018-Feb-14 02:30N 33°44' W 118°17'0 0.0
2018-Feb-14 02:00N 33°44' W 118°17'1 2.4
2018-Feb-14 01:30N 33°45' W 118°16'1 2.0
2018-Feb-14 01:00N 33°46' W 118°16'0 0.1
2018-Feb-14 00:30N 33°46' W 118°16'1 1.5
2018-Feb-14 00:00N 33°45' W 118°16'0 0.9
2018-Feb-13 23:31N 33°45' W 118°16'1 2.9
2018-Feb-13 23:00N 33°44' W 118°17'2 3.3
2018-Feb-13 22:30N 33°43' W 118°15'1 1.5
2018-Feb-13 22:00N 33°43' W 118°16'1 1.4
2018-Feb-13 21:26N 33°44' W 118°17'0 0.0
2018-Feb-13 21:00N 33°44' W 118°17'0 0.0
2018-Feb-13 20:30N 33°44' W 118°17'0 0.0
2018-Feb-13 19:59N 33°44' W 118°17'0 0.0
2018-Feb-13 19:26N 33°44' W 118°17'0 0.0
2018-Feb-13 18:51N 33°44' W 118°17'0 0.0
2018-Feb-13 18:28N 33°44' W 118°17'0 0.0
2018-Feb-13 17:59N 33°44' W 118°17'0 0.0
2018-Feb-13 17:24N 33°44' W 118°17'0 0.0
2018-Feb-13 17:00N 33°44' W 118°17'0 0.0
2018-Feb-13 16:30N 33°44' W 118°17'  

Dump ship's entire track history